Time;durP1;ratioP1;P1;durP2;ratioP2;P2;SDS_P1;SDS_P2;PMS_P1;PMS_P2;Temp;Humidity;BMP_temperature;BMP_pressure;BME280_temperature;BME280_humidity;BME280_pressure;Samples;Min_cycle;Max_cycle;Signal;HPM_P1;HPM_P2
2022/03/02 00:01:14;;;;;;;;;19.50;19.00;;;;;16.25;49.66;102752.00;5011514;28;8796;-77
2022/03/02 00:03:41;;;;;;;;;22.75;21.25;;;;;16.24;49.65;102745.84;5010204;28;8803;-77
2022/03/02 00:06:06;;;;;;;;;20.50;17.75;;;;;16.23;50.12;102743.19;5011243;28;10250;-76
2022/03/02 00:08:31;;;;;;;;;13.00;13.00;;;;;16.26;49.77;102753.81;5011543;28;10151;-75
2022/03/02 00:10:57;;;;;;;;;20.50;17.50;;;;;16.26;49.46;102743.28;5011611;28;8919;-75
2022/03/02 00:13:22;;;;;;;;;21.25;19.50;;;;;16.22;49.77;102752.84;5011801;28;8935;-76
2022/03/02 00:15:48;;;;;;;;;16.50;15.75;;;;;16.21;49.76;102751.03;5011108;28;8788;-75
2022/03/02 00:18:14;;;;;;;;;20.50;19.50;;;;;16.21;49.69;102740.50;5010580;28;8878;-76
2022/03/02 00:20:39;;;;;;;;;19.00;18.00;;;;;16.23;49.48;102746.69;5010904;28;8768;-76
2022/03/02 00:23:07;;;;;;;;;17.00;17.00;;;;;16.23;49.60;102746.69;5011277;28;8825;-75
2022/03/02 00:25:32;;;;;;;;;18.50;18.00;;;;;16.20;49.45;102741.34;5014040;28;8816;-76
2022/03/02 00:28:01;;;;;;;;;18.50;18.00;;;;;16.21;49.60;102740.50;5025077;28;10194;-75
2022/03/02 00:30:28;;;;;;;;;16.25;16.25;;;;;16.21;49.53;102744.88;5012259;28;8805;-76
2022/03/02 00:32:54;;;;;;;;;18.50;18.00;;;;;16.24;49.37;102739.69;4991573;28;10073;-76
2022/03/02 00:35:20;;;;;;;;;18.50;16.50;;;;;16.20;49.43;102751.88;4999409;28;10153;-74
2022/03/02 00:37:48;;;;;;;;;18.75;18.75;;;;;16.22;49.50;102749.31;5010740;28;10256;-77
2022/03/02 00:40:16;;;;;;;;;19.50;17.75;;;;;16.21;49.20;102750.13;5010458;28;8784;-76
2022/03/02 00:42:43;;;;;;;;;19.75;17.75;;;;;16.21;49.54;102747.50;5010532;28;10110;-76
2022/03/02 00:45:09;;;;;;;;;18.25;18.25;;;;;16.22;49.33;102741.41;5010773;28;10260;-76
2022/03/02 00:47:34;;;;;;;;;18.00;18.00;;;;;16.20;49.09;102745.72;5010070;28;10045;-75
2022/03/02 00:50:00;;;;;;;;;20.00;18.75;;;;;16.20;49.23;102745.72;5011367;28;8784;-75
2022/03/02 00:52:28;;;;;;;;;20.25;20.25;;;;;16.18;49.24;102740.41;5010924;28;8819;-75
2022/03/02 00:54:55;;;;;;;;;16.50;16.50;;;;;16.16;49.31;102739.47;5010442;28;8815;-76
2022/03/02 00:57:20;;;;;;;;;19.75;19.75;;;;;16.16;49.29;102735.97;5010854;28;10283;-75
2022/03/02 00:59:45;;;;;;;;;20.50;19.00;;;;;16.19;49.29;102728.13;5010577;28;10127;-76
2022/03/02 01:02:11;;;;;;;;;21.75;20.00;;;;;16.18;49.02;102735.13;5010382;28;8803;-76
2022/03/02 01:04:36;;;;;;;;;16.50;16.50;;;;;16.18;48.99;102724.59;5010226;28;8815;-76
2022/03/02 01:07:02;;;;;;;;;19.00;16.75;;;;;16.18;48.92;102724.59;5013085;28;8796;-77
2022/03/02 01:09:27;;;;;;;;;21.00;21.00;;;;;16.17;49.24;102720.16;5014392;28;8776;-76
2022/03/02 01:11:53;;;;;;;;;17.50;15.00;;;;;16.17;49.18;102714.91;5014669;28;8812;-75
2022/03/02 01:14:19;;;;;;;;;19.00;18.00;;;;;16.16;49.04;102721.00;5013740;28;8841;-75
2022/03/02 01:16:45;;;;;;;;;21.50;20.50;;;;;16.17;49.10;102714.91;5025588;28;10466;-75
2022/03/02 01:19:10;;;;;;;;;22.00;20.00;;;;;16.15;48.92;102713.97;5029714;28;8776;-75
2022/03/02 01:21:35;;;;;;;;;19.75;19.75;;;;;16.17;49.12;102714.00;5015971;28;8858;-75
2022/03/02 01:24:02;;;;;;;;;20.75;20.00;;;;;16.16;48.59;102714.88;5014239;28;8788;-75
2022/03/02 01:26:29;;;;;;;;;17.75;17.75;;;;;16.17;49.04;102720.16;5014175;28;8784;-75
2022/03/02 01:28:55;;;;;;;;;20.25;19.50;;;;;16.15;48.66;102705.19;5013775;28;10150;-76
2022/03/02 01:31:26;;;;;;;;;18.75;17.25;;;;;16.13;48.99;102709.50;5000523;28;10142;-76
2022/03/02 01:33:51;;;;;;;;;12.25;12.25;;;;;16.15;49.01;102707.81;4995643;28;10204;-75
2022/03/02 01:36:18;;;;;;;;;19.00;18.25;;;;;16.16;48.83;102706.97;5009390;28;10138;-76
2022/03/02 01:38:44;;;;;;;;;21.25;18.50;;;;;16.15;48.96;102705.19;5013612;28;8776;-76
2022/03/02 01:41:12;;;;;;;;;19.00;18.75;;;;;16.17;48.80;102711.38;5014092;28;10203;-76
2022/03/02 01:43:38;;;;;;;;;21.25;19.25;;;;;16.16;48.92;102706.97;5012640;28;8830;-76
2022/03/02 01:46:03;;;;;;;;;16.50;16.50;;;;;16.14;49.03;102696.38;5013919;28;10229;-76
2022/03/02 01:48:31;;;;;;;;;21.50;20.00;;;;;16.13;48.78;102702.47;5013683;28;8788;-77
2022/03/02 01:50:56;;;;;;;;;17.00;16.75;;;;;16.14;49.00;102695.47;5012932;28;8906;-75
2022/03/02 01:53:22;;;;;;;;;22.75;20.75;;;;;16.14;48.75;102693.75;5013556;28;10253;-75
2022/03/02 01:55:50;;;;;;;;;17.50;17.25;;;;;16.13;48.74;102691.94;5013529;28;8796;-75
2022/03/02 01:58:15;;;;;;;;;21.75;19.25;;;;;16.13;48.61;102685.78;5012935;28;8780;-75
2022/03/02 02:00:44;;;;;;;;;23.75;19.00;;;;;16.18;48.77;102679.81;5013411;28;10230;-75
2022/03/02 02:03:09;;;;;;;;;18.75;18.75;;;;;16.16;49.02;102688.53;5012808;28;8800;-76
2022/03/02 02:05:35;;;;;;;;;17.00;17.00;;;;;16.15;48.64;102692.00;5018707;28;10081;-75
2022/03/02 02:08:00;;;;;;;;;19.50;18.00;;;;;16.12;48.73;102690.16;5024452;28;8801;-75
2022/03/02 02:10:25;;;;;;;;;18.50;16.75;;;;;16.14;48.71;102687.56;5019498;28;10064;-75
2022/03/02 02:12:51;;;;;;;;;19.50;18.50;;;;;16.12;48.73;102676.97;5015231;28;8867;-75
2022/03/02 02:15:16;;;;;;;;;18.75;17.25;;;;;16.11;48.70;102669.03;5015236;28;8810;-74
2022/03/02 02:17:41;;;;;;;;;20.50;18.50;;;;;16.13;48.67;102669.97;5011789;28;8784;-75
2022/03/02 02:20:09;;;;;;;;;20.75;19.50;;;;;16.09;48.61;102671.63;5013050;28;9669;-76
2022/03/02 02:22:43;;;;;;;;;20.00;18.00;;;;;16.09;48.45;102671.63;5012765;28;8811;-76
2022/03/02 02:25:09;;;;;;;;;16.75;16.75;;;;;16.10;48.73;102662.88;5012537;28;10288;-76
2022/03/02 02:27:34;;;;;;;;;21.00;19.00;;;;;16.09;48.34;102658.44;5013025;28;10013;-75
2022/03/02 02:30:00;;;;;;;;;19.00;18.75;;;;;16.11;48.63;102651.50;5008784;28;9634;-76
2022/03/02 02:32:25;;;;;;;;;18.50;17.50;;;;;16.09;48.41;102652.28;4992183;28;8831;-75
2022/03/02 02:34:51;;;;;;;;;22.00;22.00;;;;;16.07;48.53;102648.72;4997305;28;10153;-77
2022/03/02 02:37:16;;;;;;;;;20.50;19.50;;;;;16.07;48.48;102649.63;5013100;28;9543;-75
2022/03/02 02:39:42;;;;;;;;;19.25;19.25;;;;;16.09;48.51;102650.53;5011767;28;8780;-76
2022/03/02 02:42:11;;;;;;;;;18.25;18.25;;;;;16.07;48.70;102644.34;5013093;28;8861;-75
2022/03/02 02:44:37;;;;;;;;;20.75;19.75;;;;;16.09;48.33;102639.09;5012377;28;8824;-75
2022/03/02 02:47:02;;;;;;;;;18.75;18.75;;;;;16.07;48.51;102636.44;5011869;28;10231;-76
2022/03/02 02:49:28;;;;;;;;;17.00;17.00;;;;;16.07;48.70;102643.47;5012714;28;8853;-76
2022/03/02 02:51:54;;;;;;;;;21.50;20.25;;;;;16.10;48.68;102638.28;5017013;28;8832;-76
2022/03/02 02:54:20;;;;;;;;;22.00;20.50;;;;;16.10;48.25;102633.91;5017210;28;8784;-75
2022/03/02 02:56:45;;;;;;;;;20.25;19.50;;;;;16.05;48.31;102632.88;5029528;28;8790;-76
2022/03/02 02:59:11;;;;;;;;;22.50;21.25;;;;;16.07;48.43;102639.09;5028384;28;10139;-75
2022/03/02 03:01:36;;;;;;;;;20.75;20.75;;;;;16.08;48.39;102632.97;5015315;28;8874;-75
2022/03/02 03:04:01;;;;;;;;;20.00;20.00;;;;;16.06;48.30;102625.84;5012635;28;8846;-76
2022/03/02 03:06:27;;;;;;;;;20.00;20.00;;;;;16.05;48.32;102621.44;5011284;28;8816;-77
2022/03/02 03:08:52;;;;;;;;;16.50;16.50;;;;;16.07;48.53;102617.13;5012372;28;8772;-75
2022/03/02 03:11:23;;;;;;;;;19.25;18.00;;;;;16.06;48.22;102615.31;5012139;28;8788;-75
2022/03/02 03:13:48;;;;;;;;;19.50;19.00;;;;;16.06;48.38;102617.94;5011219;28;9567;-76
2022/03/02 03:16:14;;;;;;;;;19.25;18.50;;;;;16.05;48.32;102614.41;5012305;28;10244;-76
2022/03/02 03:18:39;;;;;;;;;19.50;17.25;;;;;16.05;48.30;102611.78;5011578;28;8817;-75
2022/03/02 03:21:04;;;;;;;;;23.25;21.75;;;;;16.06;48.04;102612.69;5011410;28;8815;-76
2022/03/02 03:23:29;;;;;;;;;23.00;20.75;;;;;16.03;48.21;102605.59;5011857;28;8911;-75
2022/03/02 03:25:55;;;;;;;;;20.25;20.00;;;;;16.07;48.06;102615.38;5012265;28;8780;-76
2022/03/02 03:28:20;;;;;;;;;21.75;21.75;;;;;16.05;48.11;102617.06;5010250;28;8794;-75
2022/03/02 03:30:46;;;;;;;;;20.75;20.75;;;;;16.06;48.13;102610.94;5001255;28;8893;-76
2022/03/02 03:33:11;;;;;;;;;20.25;19.25;;;;;16.04;48.02;102606.50;4992114;28;8814;-77
2022/03/02 03:35:37;;;;;;;;;19.75;19.75;;;;;16.05;48.00;102608.25;5003382;28;8931;-76
2022/03/02 03:38:02;;;;;;;;;17.50;17.50;;;;;16.07;48.09;102609.22;5015651;28;8795;-76
2022/03/02 03:40:28;;;;;;;;;18.50;18.00;;;;;16.04;47.90;102607.38;5013854;28;8876;-76
2022/03/02 03:42:56;;;;;;;;;20.25;19.25;;;;;16.04;47.82;102603.84;5011696;28;8804;-75
2022/03/02 03:45:22;;;;;;;;;20.50;19.25;;;;;16.05;48.10;102603.88;5019958;28;8830;-76
2022/03/02 03:47:48;;;;;;;;;17.75;16.00;;;;;16.02;47.79;102598.53;5026023;28;10311;-75
2022/03/02 03:50:14;;;;;;;;;20.50;19.75;;;;;16.08;48.02;102595.19;5017111;28;8779;-75
2022/03/02 03:52:40;;;;;;;;;17.75;17.75;;;;;16.04;47.71;102598.59;5011897;28;10231;-76
2022/03/02 03:55:07;;;;;;;;;16.50;16.50;;;;;16.04;47.98;102596.84;5011713;28;8788;-76
2022/03/02 03:57:32;;;;;;;;;18.00;16.75;;;;;16.00;48.14;102584.44;5010591;28;8874;-75
2022/03/02 03:59:57;;;;;;;;;20.75;20.00;;;;;16.05;47.80;102597.72;5011242;28;10122;-75
2022/03/02 04:02:23;;;;;;;;;21.00;20.00;;;;;16.06;47.72;102592.50;5011180;28;8796;-76
2022/03/02 04:04:51;;;;;;;;;20.50;20.50;;;;;16.01;47.82;102595.88;5010321;28;8776;-76
2022/03/02 04:07:16;;;;;;;;;20.00;19.50;;;;;16.03;48.13;102592.44;5011374;28;8788;-76
2022/03/02 04:09:41;;;;;;;;;18.75;18.00;;;;;16.02;47.70;102585.38;5010474;28;10131;-76
2022/03/02 04:12:07;;;;;;;;;20.50;17.00;;;;;16.01;47.69;102585.34;5011089;28;8815;-76
2022/03/02 04:14:35;;;;;;;;;22.00;18.50;;;;;16.00;47.91;102571.28;5011017;28;8906;-76
2022/03/02 04:17:00;;;;;;;;;29.75;21.75;;;;;16.02;47.93;102574.81;5011782;28;8898;-75
2022/03/02 04:19:29;;;;;;;;;20.50;20.50;;;;;16.04;47.80;102575.78;5012157;28;10196;-75
2022/03/02 04:21:54;;;;;;;;;18.75;18.75;;;;;16.01;47.71;102573.03;5011219;28;8792;-76
2022/03/02 04:24:19;;;;;;;;;20.00;18.75;;;;;16.03;47.83;102566.09;5010297;28;10038;-75
2022/03/02 04:26:44;;;;;;;;;16.75;16.25;;;;;16.03;47.81;102573.09;5010637;28;8800;-75
2022/03/02 04:29:10;;;;;;;;;19.75;19.25;;;;;16.03;47.82;102565.19;5010754;28;9650;-75
2022/03/02 04:31:35;;;;;;;;;21.00;20.50;;;;;16.00;47.83;102568.63;4992411;28;8833;-76
2022/03/02 04:34:00;;;;;;;;;20.00;20.00;;;;;16.03;47.64;102570.44;4992627;28;8830;-75
2022/03/02 04:36:26;;;;;;;;;25.25;23.75;;;;;16.02;47.70;102566.03;5018283;28;8792;-76
2022/03/02 04:38:51;;;;;;;;;23.75;20.75;;;;;16.02;47.56;102560.75;5020029;28;8777;-75
2022/03/02 04:41:16;;;;;;;;;17.25;17.00;;;;;16.01;47.92;102562.50;5011609;28;9566;-76
2022/03/02 04:43:43;;;;;;;;;20.25;18.25;;;;;16.00;47.78;102560.72;5010600;28;8890;-77
2022/03/02 04:46:08;;;;;;;;;16.50;14.50;;;;;16.02;47.64;102556.38;5010156;28;8788;-76
2022/03/02 04:48:34;;;;;;;;;22.25;22.25;;;;;16.01;47.66;102551.09;5010694;28;10169;-78
2022/03/02 04:50:59;;;;;;;;;23.00;22.25;;;;;16.02;47.83;102552.84;5010701;28;8788;-76
2022/03/02 04:53:24;;;;;;;;;22.75;21.25;;;;;15.99;47.63;102550.16;5009554;28;8814;-75
2022/03/02 04:55:50;;;;;;;;;17.75;17.25;;;;;15.96;47.45;102543.06;5010952;28;8792;-75
2022/03/02 04:58:16;;;;;;;;;21.50;19.50;;;;;15.98;47.79;102554.50;5012325;28;8935;-76
2022/03/02 05:00:41;;;;;;;;;20.50;19.50;;;;;16.00;47.64;102551.94;5012307;28;8819;-76
2022/03/02 05:03:07;;;;;;;;;26.25;19.75;;;;;15.99;47.77;102544.88;5011094;28;8780;-77
2022/03/02 05:05:35;;;;;;;;;19.75;18.75;;;;;15.98;47.71;102540.44;5010188;28;8780;-76
2022/03/02 05:08:00;;;;;;;;;21.75;20.25;;;;;15.98;47.65;102553.63;5010015;28;8783;-76
2022/03/02 05:10:27;;;;;;;;;18.50;18.00;;;;;16.02;47.49;102547.59;5010114;28;10119;-75
2022/03/02 05:12:53;;;;;;;;;17.50;17.50;;;;;15.97;47.70;102544.84;5010283;28;8843;-76
2022/03/02 05:15:19;;;;;;;;;18.25;17.00;;;;;15.99;47.57;102543.13;5009889;28;10030;-76
2022/03/02 05:17:46;;;;;;;;;21.50;20.25;;;;;16.01;47.41;102551.09;5010389;28;9974;-75
2022/03/02 05:20:13;;;;;;;;;20.25;20.25;;;;;15.97;47.57;102551.88;5009863;28;10055;-75
2022/03/02 05:22:39;;;;;;;;;22.50;21.00;;;;;15.95;47.74;102538.63;5010196;28;10020;-76
2022/03/02 05:25:06;;;;;;;;;20.75;20.00;;;;;16.02;47.41;102540.56;5020674;28;10169;-74
2022/03/02 05:27:31;;;;;;;;;19.00;18.75;;;;;15.95;47.61;102543.91;5028486;28;8843;-75
2022/03/02 05:29:59;;;;;;;;;18.25;17.00;;;;;15.96;47.39;102535.16;5018041;28;10151;-76
2022/03/02 05:32:27;;;;;;;;;19.50;19.50;;;;;15.90;47.49;102532.34;4990669;28;8849;-76
2022/03/02 05:34:53;;;;;;;;;20.75;19.25;;;;;16.06;47.51;102534.53;4994392;28;10055;-76
2022/03/02 05:37:18;;;;;;;;;16.25;16.25;;;;;16.36;52.85;102531.78;5010235;28;10215;-74
2022/03/02 05:39:44;;;;;;;;;24.25;21.00;;;;;16.41;57.14;102524.91;5011028;28;8803;-75
2022/03/02 05:42:09;;;;;;;;;21.00;19.75;;;;;16.53;55.06;102529.59;5010985;28;8919;-73
2022/03/02 05:44:35;;;;;;;;;20.25;18.75;;;;;16.58;56.87;102534.13;5009806;28;8947;-74
2022/03/02 05:47:01;;;;;;;;;20.75;20.75;;;;;16.66;57.56;102534.31;5010271;28;8776;-78
2022/03/02 05:49:27;;;;;;;;;21.75;21.75;;;;;16.74;58.97;102533.66;5009117;28;11451;-80
2022/03/02 05:51:52;;;;;;;;;25.25;23.00;;;;;16.81;62.74;102524.13;5010890;28;10237;-77
2022/03/02 05:54:20;;;;;;;;;21.50;21.50;;;;;16.88;61.56;102533.94;5013500;28;9552;-77
2022/03/02 05:56:45;;;;;;;;;20.50;20.50;;;;;16.83;62.34;102531.19;5012436;28;8788;-77
2022/03/02 05:59:14;;;;;;;;;23.00;20.00;;;;;16.79;60.71;102532.00;5013276;28;10324;-76
2022/03/02 06:01:39;;;;;;;;;21.75;18.50;;;;;16.76;61.36;102539.81;5013187;28;9729;-75
2022/03/02 06:04:05;;;;;;;;;18.00;16.50;;;;;16.72;60.83;102529.19;5012927;28;10154;-81
2022/03/02 06:06:35;;;;;;;;;18.50;17.25;;;;;16.76;59.90;102534.56;5012488;28;9512;-76
2022/03/02 06:09:08;;;;;;;;;22.75;22.00;;;;;16.75;59.79;102529.25;5012439;28;8808;-76
2022/03/02 06:11:36;;;;;;;;;22.50;22.25;;;;;16.71;59.74;102530.94;5003661;28;10120;-73
2022/03/02 06:14:02;;;;;;;;;18.25;18.25;;;;;16.72;60.53;102535.34;5025475;28;10087;-76
2022/03/02 06:16:28;;;;;;;;;21.00;21.00;;;;;16.72;60.11;102545.88;5015404;28;10171;-76
2022/03/02 06:18:53;;;;;;;;;22.00;21.00;;;;;16.72;59.83;102548.53;5020138;28;9512;-76
2022/03/02 06:21:24;;;;;;;;;23.25;21.25;;;;;16.70;59.68;102550.25;5013231;28;8877;-75
2022/03/02 06:23:49;;;;;;;;;19.00;18.25;;;;;16.72;59.66;102550.28;5012347;28;8821;-76
2022/03/02 06:26:15;;;;;;;;;18.00;18.00;;;;;16.69;59.36;102548.47;5012556;28;9993;-77
2022/03/02 06:28:40;;;;;;;;;18.50;17.25;;;;;16.70;59.33;102552.00;5012670;28;8788;-76
2022/03/02 06:31:06;;;;;;;;;22.50;20.75;;;;;16.68;59.42;102557.25;5011860;28;8819;-76
2022/03/02 06:33:31;;;;;;;;;17.75;17.25;;;;;16.64;59.15;102547.47;5012030;28;8828;-79
2022/03/02 06:35:59;;;;;;;;;20.50;18.75;;;;;16.66;59.29;102556.31;5012314;28;8822;-75
2022/03/02 06:38:25;;;;;;;;;18.75;18.25;;;;;16.67;59.39;102560.72;5010957;28;8808;-77
2022/03/02 06:41:01;;;;;;;;;17.00;16.00;;;;;16.66;59.18;102556.31;5012875;28;10149;-76
2022/03/02 06:43:33;;;;;;;;;16.00;16.00;;;;;16.66;58.56;102555.41;5011563;28;8805;-78
2022/03/02 06:46:09;;;;;;;;;8.50;7.00;;;;;16.64;58.80;102557.13;5011707;28;10099;-77
2022/03/02 06:48:52;;;;;;;;;18.75;18.50;;;;;16.65;58.35;102562.41;5012371;28;9999;-77
2022/03/02 06:51:21;;;;;;;;;19.25;18.25;;;;;16.64;58.27;102562.41;5012567;28;10156;-77
2022/03/02 06:53:47;;;;;;;;;15.50;15.50;;;;;16.59;58.40;102564.03;5011641;28;10032;-77
2022/03/02 06:56:13;;;;;;;;;17.50;17.50;;;;;16.60;58.42;102563.19;5012415;28;10107;-78
2022/03/02 06:58:47;;;;;;;;;22.75;19.75;;;;;16.63;58.05;102569.41;5011750;28;9945;-77
2022/03/02 07:01:14;;;;;;;;;17.25;15.75;;;;;16.58;57.65;102565.78;5016704;28;10017;-77
2022/03/02 07:03:49;;;;;;;;;18.25;18.25;;;;;16.58;57.59;102567.50;5020483;28;10105;-80
2022/03/02 07:06:15;;;;;;;;;20.25;20.25;;;;;16.58;57.59;102568.41;5035166;28;9916;-78
2022/03/02 07:08:45;;;;;;;;;21.75;19.75;;;;;16.59;57.23;102567.56;5023626;28;10002;-78
2022/03/02 07:11:16;;;;;;;;;21.25;19.00;;;;;16.59;57.50;102559.66;5017188;28;9982;-77
2022/03/02 07:13:45;;;;;;;;;18.75;16.00;;;;;16.59;56.83;102564.03;5011862;28;10072;-77
2022/03/02 07:16:16;;;;;;;;;21.00;19.75;;;;;16.58;57.02;102554.31;4992803;28;9992;-77
2022/03/02 07:18:41;;;;;;;;;20.00;20.00;;;;;16.55;56.92;102560.41;4992529;28;10136;-77
2022/03/02 07:21:13;;;;;;;;;19.50;18.25;;;;;16.54;56.92;102561.22;4991903;28;10337;-78
2022/03/02 07:23:55;;;;;;;;;19.75;19.75;;;;;16.55;56.49;102562.13;4992200;28;8793;-77
2022/03/02 07:26:22;;;;;;;;;21.50;19.50;;;;;16.55;56.14;102564.78;4992216;28;10078;-78
2022/03/02 07:28:48;;;;;;;;;20.75;20.50;;;;;16.54;56.25;102565.63;4991567;28;10155;-76
2022/03/02 07:31:14;;;;;;;;;21.50;19.00;;;;;16.51;56.14;102563.81;4992529;28;10127;-78
2022/03/02 07:33:42;;;;;;;;;19.75;15.75;;;;;16.50;56.00;102567.28;4991627;28;10278;-77
2022/03/02 07:36:09;;;;;;;;;17.50;17.50;;;;;16.54;56.17;102571.78;5006874;28;8804;-78
2022/03/02 07:38:35;;;;;;;;;19.00;17.75;;;;;16.51;55.99;102563.81;5011889;28;10159;-77
2022/03/02 07:41:07;;;;;;;;;19.75;19.25;;;;;16.53;55.41;102577.03;5010750;28;10198;-77
2022/03/02 07:43:36;;;;;;;;;19.75;17.25;;;;;16.55;55.65;102577.94;5013442;28;8819;-77
2022/03/02 07:46:01;;;;;;;;;17.25;16.00;;;;;16.51;55.51;102579.63;5020533;28;10049;-78
2022/03/02 07:48:31;;;;;;;;;19.50;18.50;;;;;16.52;55.25;102583.16;5015775;28;9994;-78
2022/03/02 07:50:58;;;;;;;;;20.25;17.50;;;;;16.48;55.24;102579.56;5014186;28;8780;-78
2022/03/02 07:53:26;;;;;;;;;16.00;15.75;;;;;16.52;55.05;102576.16;5013429;28;10021;-77
2022/03/02 07:55:54;;;;;;;;;16.50;16.50;;;;;16.50;55.01;102580.47;5020157;28;10045;-76
2022/03/02 07:58:21;;;;;;;;;20.75;19.25;;;;;16.49;55.12;102580.44;5018511;28;9895;-77
2022/03/02 08:00:48;;;;;;;;;20.50;19.75;;;;;16.49;54.89;102583.97;5013386;28;9945;-77
2022/03/02 08:03:15;;;;;;;;;21.50;20.75;;;;;16.49;54.95;102573.44;5011489;28;10223;-77
2022/03/02 08:05:43;;;;;;;;;21.50;21.25;;;;;16.47;54.47;102577.75;5011027;28;10317;-76
2022/03/02 08:08:14;;;;;;;;;15.75;15.75;;;;;16.47;54.55;102571.59;5011358;28;10068;-77
2022/03/02 08:10:42;;;;;;;;;14.50;14.00;;;;;16.44;54.37;102564.50;5010775;28;10027;-79
2022/03/02 08:13:17;;;;;;;;;19.25;19.25;;;;;16.47;54.38;102566.31;5011052;28;10169;-77
2022/03/02 08:15:43;;;;;;;;;19.00;18.75;;;;;16.47;54.08;102566.31;5010247;28;10137;-79
2022/03/02 08:18:10;;;;;;;;;25.50;23.00;;;;;16.48;53.85;102574.28;5011274;28;10459;-78
2022/03/02 08:20:36;;;;;;;;;21.00;20.00;;;;;16.50;53.87;102572.56;5012130;28;9622;-77
2022/03/02 08:23:05;;;;;;;;;18.00;18.00;;;;;16.48;53.94;102570.75;5010937;28;10407;-77
2022/03/02 08:25:32;;;;;;;;;23.25;21.00;;;;;16.50;53.93;102575.19;5012752;28;10283;-78
2022/03/02 08:28:02;;;;;;;;;17.75;15.50;;;;;16.47;53.69;102572.50;5014958;28;10361;-76
2022/03/02 08:30:32;;;;;;;;;20.50;19.50;;;;;16.49;53.67;102578.72;5010612;28;10490;-77
2022/03/02 08:33:00;;;;;;;;;19.50;18.75;;;;;16.47;53.49;102575.13;5011053;28;10434;-77
2022/03/02 08:35:25;;;;;;;;;21.25;18.25;;;;;16.49;53.58;102573.44;5010619;28;11052;-76
2022/03/02 08:37:51;;;;;;;;;21.00;19.50;;;;;16.47;53.47;102568.97;5010154;28;10342;-77
2022/03/02 08:40:16;;;;;;;;;15.00;12.75;;;;;16.47;53.22;102558.41;5011011;28;8786;-76
2022/03/02 08:42:41;;;;;;;;;22.75;22.75;;;;;16.49;53.31;102565.53;5010720;28;8855;-78
2022/03/02 08:45:10;;;;;;;;;18.50;17.50;;;;;16.52;52.92;102568.22;5021391;28;8840;-77
2022/03/02 08:47:36;;;;;;;;;16.00;15.75;;;;;16.54;53.06;102568.25;5023369;28;8792;-76
2022/03/02 08:50:03;;;;;;;;;17.25;17.25;;;;;16.56;52.67;102572.75;5011587;28;10394;-75
2022/03/02 08:52:32;;;;;;;;;21.00;20.25;;;;;16.58;52.63;102557.84;5010290;28;8812;-76
2022/03/02 08:55:00;;;;;;;;;20.25;19.25;;;;;16.60;52.39;102557.91;5011024;28;10358;-80
2022/03/02 08:57:26;;;;;;;;;20.50;19.00;;;;;16.64;52.55;102558.03;5010956;28;10369;-79
2022/03/02 08:59:53;;;;;;;;;22.00;20.25;;;;;16.66;52.50;102560.69;5010544;28;11113;-78
2022/03/02 09:02:29;;;;;;;;;21.00;19.50;;;;;16.71;52.17;102564.34;5016922;28;8916;-76
2022/03/02 09:04:59;;;;;;;;;19.50;18.75;;;;;16.71;52.17;102553.78;5007988;28;10333;-74
2022/03/02 09:07:25;;;;;;;;;20.75;20.50;;;;;16.66;52.21;102553.66;5010120;28;10487;-75
2022/03/02 09:09:50;;;;;;;;;20.25;20.25;;;;;16.72;52.09;102560.84;5031205;28;10455;-75
2022/03/02 09:12:16;;;;;;;;;13.00;12.00;;;;;16.68;52.28;102556.34;5029435;28;8825;-75
2022/03/02 09:14:42;;;;;;;;;18.50;18.50;;;;;16.66;52.37;102545.75;5021760;28;8811;-76
2022/03/02 09:17:08;;;;;;;;;22.00;20.00;;;;;16.67;52.60;102554.56;5010128;28;8780;-75
2022/03/02 09:19:35;;;;;;;;;20.75;18.75;;;;;16.65;52.56;102546.59;5009540;28;10485;-79
2022/03/02 09:22:01;;;;;;;;;21.50;20.50;;;;;16.79;51.68;102553.13;5010745;28;10947;-77
2022/03/02 09:24:29;;;;;;;;;22.00;20.00;;;;;16.70;51.85;102557.25;5010160;28;10218;-77
2022/03/02 09:26:57;;;;;;;;;26.25;22.25;;;;;16.53;51.60;102554.19;5010685;28;8808;-77
2022/03/02 09:29:29;;;;;;;;;19.50;19.50;;;;;16.51;51.58;102555.00;5013953;28;10456;-77
2022/03/02 09:31:56;;;;;;;;;23.25;23.25;;;;;16.47;51.28;102545.22;5014208;28;10446;-76
2022/03/02 09:34:25;;;;;;;;;27.50;23.00;;;;;16.52;50.97;102549.78;5017862;28;10300;-76
2022/03/02 09:36:54;;;;;;;;;28.25;25.00;;;;;16.48;51.07;102549.66;5027813;28;10396;-77
2022/03/02 09:39:20;;;;;;;;;22.00;21.00;;;;;16.69;51.07;102552.84;5020695;28;10390;-75
2022/03/02 09:41:49;;;;;;;;;23.50;23.50;;;;;16.69;50.88;102544.94;5015271;28;11137;-76
2022/03/02 09:44:21;;;;;;;;;23.75;23.75;;;;;16.58;50.43;102546.41;5014300;28;8909;-78
2022/03/02 09:46:55;;;;;;;;;23.50;23.25;;;;;16.52;50.51;102533.97;5013936;28;10460;-77
2022/03/02 09:49:23;;;;;;;;;26.25;23.25;;;;;16.56;50.39;102543.75;5019213;28;10512;-76
2022/03/02 09:51:58;;;;;;;;;28.75;25.25;;;;;16.56;49.89;102540.19;5018576;28;10502;-77
2022/03/02 09:54:23;;;;;;;;;25.75;24.50;;;;;16.57;50.23;102547.28;5012637;28;10398;-77
2022/03/02 09:56:50;;;;;;;;;23.25;22.00;;;;;16.62;49.88;102540.38;5013147;28;10389;-78
2022/03/02 09:59:17;;;;;;;;;24.75;23.50;;;;;16.62;49.86;102538.63;5013769;28;8847;-76
2022/03/02 10:01:43;;;;;;;;;24.75;24.50;;;;;16.60;49.49;102536.81;5012054;28;10401;-77
2022/03/02 10:04:13;;;;;;;;;26.00;26.00;;;;;16.63;49.34;102540.41;5013424;28;10461;-78
2022/03/02 10:06:42;;;;;;;;;23.25;22.50;;;;;16.70;49.35;102537.06;5013211;28;10626;-79
2022/03/02 10:09:08;;;;;;;;;20.25;18.75;;;;;16.87;49.31;102534.81;5012624;28;10496;-77
2022/03/02 10:11:34;;;;;;;;;25.75;24.75;;;;;17.42;47.46;102531.63;5013133;28;10368;-77
2022/03/02 10:13:59;;;;;;;;;22.25;22.00;;;;;16.89;48.31;102522.53;5013180;28;8820;-79
2022/03/02 10:16:27;;;;;;;;;26.00;25.50;;;;;16.81;48.24;102526.75;5012250;28;10335;-79
2022/03/02 10:19:02;;;;;;;;;22.50;22.00;;;;;16.76;48.40;102526.63;5016358;28;8777;-78
2022/03/02 10:21:31;;;;;;;;;30.50;25.25;;;;;16.82;48.10;102525.91;5009901;28;10389;-78
2022/03/02 10:24:02;;;;;;;;;24.00;24.00;;;;;16.85;47.88;102525.97;5015797;28;10502;-77
2022/03/02 10:26:29;;;;;;;;;26.00;21.00;;;;;16.86;48.10;102525.13;5031797;28;10321;-78
2022/03/02 10:29:03;;;;;;;;;21.00;21.00;;;;;16.87;47.61;102516.34;5038509;28;10416;-77
2022/03/02 10:31:45;;;;;;;;;20.50;19.25;;;;;16.91;47.33;102521.72;5025996;28;11182;-76
2022/03/02 10:34:29;;;;;;;;;24.00;23.75;;;;;16.93;47.45;102511.22;5031670;28;10491;-78
2022/03/02 10:37:19;;;;;;;;;23.75;23.75;;;;;17.00;47.19;102520.13;5013247;28;10483;-78
2022/03/02 10:40:05;;;;;;;;;27.00;24.75;;;;;17.00;46.76;102518.41;5031224;28;10318;-77
2022/03/02 10:42:57;;;;;;;;;24.00;23.00;;;;;17.02;46.88;102513.16;5027776;28;10426;-79
2022/03/02 10:45:51;;;;;;;;;21.25;20.25;;;;;17.03;46.41;102512.28;5011614;28;10385;-78
2022/03/02 10:48:44;;;;;;;;;25.00;21.75;;;;;17.03;46.46;102507.91;5012437;28;10198;-78
2022/03/02 10:51:11;;;;;;;;;26.25;22.75;;;;;17.09;46.54;102521.25;5000492;28;10311;-81
2022/03/02 10:53:40;;;;;;;;;25.75;22.75;;;;;17.20;46.62;102514.44;4992170;28;10365;-78
2022/03/02 10:56:08;;;;;;;;;21.50;21.00;;;;;17.24;47.07;102512.75;4991103;28;10422;-78
2022/03/02 10:58:39;;;;;;;;;24.25;22.00;;;;;17.23;46.50;102508.34;5009081;28;10315;-79
2022/03/02 11:01:05;;;;;;;;;23.25;21.75;;;;;17.33;47.10;102505.91;5012130;28;10387;-79
2022/03/02 11:03:37;;;;;;;;;18.00;16.75;;;;;17.35;46.98;102509.50;5012563;28;10318;-83
2022/03/02 11:06:08;;;;;;;;;22.00;21.75;;;;;17.34;46.98;102507.69;5014966;28;8780;-83
2022/03/02 11:08:36;;;;;;;;;21.25;18.50;;;;;17.39;47.38;102502.53;5015427;28;10373;-81
2022/03/02 11:11:03;;;;;;;;;19.00;19.00;;;;;17.35;47.44;102503.31;5022556;28;10215;-82
2022/03/02 11:13:30;;;;;;;;;16.25;15.75;;;;;17.38;47.57;102498.09;5020717;28;10185;-81
2022/03/02 11:15:59;;;;;;;;;19.00;19.00;;;;;17.38;47.49;102501.63;5005680;28;10206;-81